Time;durP1;ratioP1;P1;durP2;ratioP2;P2;SDS_P1;SDS_P2;PMS_P1;PMS_P2;Temp;Humidity;BMP_temperature;BMP_pressure;BME280_temperature;BME280_humidity;BME280_pressure;Samples;Min_cycle;Max_cycle;Signal;HPM_P1;HPM_P2
2022/08/31 00:05:15;;;;;;;2.22;0.70;;;16.70;97.20;;;;;;6117851;23;20350;-78
2022/08/31 00:07:45;;;;;;;1.20;0.50;;;16.70;97.30;;;;;;6090945;23;20033;-78
2022/08/31 00:10:26;;;;;;;2.15;0.50;;;16.60;97.40;;;;;;6101981;23;20402;-77
2022/08/31 00:12:53;;;;;;;1.00;0.55;;;16.60;97.50;;;;;;6126709;23;20017;-78
2022/08/31 00:15:21;;;;;;;1.95;0.80;;;16.60;97.50;;;;;;6068346;23;20025;-77
2022/08/31 00:17:48;;;;;;;3.03;0.50;;;16.60;97.60;;;;;;6068457;23;20358;-78
2022/08/31 00:20:19;;;;;;;1.45;0.50;;;16.60;97.60;;;;;;6067893;23;20010;-77
2022/08/31 00:22:48;;;;;;;1.08;0.50;;;16.50;97.70;;;;;;6068842;23;20010;-77
2022/08/31 00:25:15;;;;;;;2.60;0.50;;;16.50;97.70;;;;;;6091485;23;20346;-79
2022/08/31 00:27:44;;;;;;;2.20;0.80;;;16.50;97.80;;;;;;6091975;23;20002;-77
2022/08/31 00:30:11;;;;;;;4.25;0.60;;;16.50;98.00;;;;;;6068324;23;20007;-76
2022/08/31 00:32:38;;;;;;;2.47;0.95;;;16.50;98.00;;;;;;6068095;23;20466;-76
2022/08/31 00:35:06;;;;;;;2.58;0.80;;;16.50;98.10;;;;;;6091928;23;20334;-78
2022/08/31 00:37:32;;;;;;;2.55;0.57;;;16.40;98.10;;;;;;6095069;23;20437;-79
2022/08/31 00:40:00;;;;;;;1.50;0.50;;;16.40;98.20;;;;;;6099941;23;20011;-80
2022/08/31 00:42:27;;;;;;;1.55;0.68;;;16.40;98.20;;;;;;6099969;23;20010;-78
2022/08/31 00:44:57;;;;;;;1.80;0.50;;;16.40;98.30;;;;;;6070999;23;20014;-77
2022/08/31 00:47:23;;;;;;;4.03;0.75;;;16.30;98.30;;;;;;6068010;23;20756;-77
2022/08/31 00:49:51;;;;;;;3.30;0.68;;;16.30;98.70;;;;;;6091065;23;20003;-78
2022/08/31 00:52:29;;;;;;;1.35;0.50;;;16.30;98.50;;;;;;6068312;23;20010;-77
2022/08/31 00:55:04;;;;;;;3.35;0.73;;;16.20;98.50;;;;;;6069152;23;20009;-77
2022/08/31 00:57:34;;;;;;;3.10;0.70;;;16.20;98.80;;;;;;6067293;23;20003;-77
2022/08/31 01:00:03;;;;;;;2.35;0.50;;;16.20;98.90;;;;;;6125818;23;20013;-77
2022/08/31 01:02:29;;;;;;;0.93;0.30;;;16.10;98.80;;;;;;6115962;23;20010;-77
2022/08/31 01:04:56;;;;;;;2.13;0.65;;;16.10;98.80;;;;;;6091452;23;20334;-76
2022/08/31 01:07:26;;;;;;;1.27;0.50;;;16.10;98.90;;;;;;6067319;23;20435;-77
2022/08/31 01:09:54;;;;;;;1.70;0.52;;;16.10;98.90;;;;;;6115738;23;20003;-77
2022/08/31 01:12:21;;;;;;;1.88;0.50;;;16.10;98.90;;;;;;6091680;23;20011;-77
2022/08/31 01:14:47;;;;;;;1.17;0.60;;;16.10;99.10;;;;;;6067481;23;20466;-77
2022/08/31 01:17:16;;;;;;;1.30;0.50;;;16.10;99.00;;;;;;6067706;23;20003;-77
2022/08/31 01:20:17;;;;;;;4.13;0.68;;;16.00;99.00;;;;;;6115773;23;20023;-77
2022/08/31 01:23:02;;;;;;;3.13;0.82;;;16.00;99.20;;;;;;6065097;23;20026;-76
2022/08/31 01:25:29;;;;;;;1.42;0.50;;;16.00;99.30;;;;;;6091426;23;20052;-77
2022/08/31 01:27:58;;;;;;;1.02;0.50;;;15.90;99.30;;;;;;6067243;23;20016;-77
2022/08/31 01:30:25;;;;;;;1.17;0.50;;;15.90;99.30;;;;;;6091197;23;20014;-77
2022/08/31 01:32:51;;;;;;;1.17;0.70;;;15.90;99.30;;;;;;6068702;23;20319;-78
2022/08/31 01:35:19;;;;;;;2.10;0.57;;;15.80;99.30;;;;;;6093855;23;20021;-77
2022/08/31 01:37:46;;;;;;;1.92;0.55;;;15.90;99.40;;;;;;6094174;23;20621;-77
2022/08/31 01:40:15;;;;;;;3.47;0.57;;;15.80;99.40;;;;;;6093228;23;20017;-76
2022/08/31 01:42:42;;;;;;;2.53;0.52;;;15.80;99.50;;;;;;6093522;23;20261;-77
2022/08/31 01:45:10;;;;;;;1.50;0.60;;;15.80;99.60;;;;;;6093358;23;20010;-77
2022/08/31 01:47:40;;;;;;;2.75;0.60;;;15.70;99.50;;;;;;6093352;23;20466;-76
2022/08/31 01:50:10;;;;;;;1.88;0.70;;;15.70;99.70;;;;;;6069582;23;20016;-77
2022/08/31 01:52:37;;;;;;;1.75;0.50;;;15.70;99.70;;;;;;6069772;23;20006;-77
2022/08/31 01:55:06;;;;;;;1.88;0.68;;;15.70;99.70;;;;;;6069091;23;20006;-78
2022/08/31 01:57:33;;;;;;;1.20;0.60;;;15.60;99.70;;;;;;6093040;23;20327;-76
2022/08/31 02:00:23;;;;;;;0.82;0.40;;;15.60;99.80;;;;;;6069676;23;20013;-76
2022/08/31 02:02:49;;;;;;;1.73;0.52;;;15.60;99.70;;;;;;6094042;23;20338;-79
2022/08/31 02:05:16;;;;;;;1.48;0.80;;;15.50;99.80;;;;;;6092423;23;20350;-76
2022/08/31 02:07:45;;;;;;;2.72;0.70;;;15.50;99.90;;;;;;6068623;23;20018;-76
2022/08/31 02:10:11;;;;;;;3.05;0.80;;;15.50;99.90;;;;;;6069267;23;20331;-77
2022/08/31 02:12:39;;;;;;;2.60;0.80;;;15.50;99.90;;;;;;6069316;23;20015;-76
2022/08/31 02:15:08;;;;;;;2.03;0.50;;;15.40;99.90;;;;;;6069047;23;20346;-76
2022/08/31 02:17:35;;;;;;;1.75;0.77;;;15.40;99.90;;;;;;6093797;23;20029;-77
2022/08/31 02:20:06;;;;;;;1.15;0.40;;;15.40;99.90;;;;;;6093480;23;20489;-76
2022/08/31 02:22:33;;;;;;;1.13;0.50;;;15.40;99.90;;;;;;6093414;23;20006;-76
2022/08/31 02:25:00;;;;;;;1.73;0.93;;;15.30;99.90;;;;;;6068616;23;20041;-77
2022/08/31 02:27:30;;;;;;;1.45;0.57;;;15.20;99.90;;;;;;6117456;23;20029;-76
2022/08/31 02:29:56;;;;;;;1.67;0.50;;;15.30;99.90;;;;;;6069404;23;20002;-77
2022/08/31 02:32:23;;;;;;;1.83;0.50;;;15.20;99.90;;;;;;6093209;23;20006;-76
2022/08/31 02:34:50;;;;;;;1.60;0.57;;;15.20;99.90;;;;;;6092561;23;20088;-77
2022/08/31 02:37:17;;;;;;;1.10;0.43;;;15.20;99.90;;;;;;6069860;23;20007;-77
2022/08/31 02:39:46;;;;;;;2.30;0.63;;;15.20;99.90;;;;;;6069061;23;20021;-77
2022/08/31 02:42:14;;;;;;;2.30;0.60;;;15.10;99.90;;;;;;6068951;23;20006;-77
2022/08/31 02:44:45;;;;;;;1.38;0.50;;;15.10;99.90;;;;;;6069660;23;20014;-76
2022/08/31 02:47:12;;;;;;;1.15;0.50;;;15.10;99.90;;;;;;6068830;23;20006;-76
2022/08/31 02:50:03;;;;;;;3.13;0.45;;;15.10;99.90;;;;;;6097431;23;20463;-76
2022/08/31 02:52:30;;;;;;;1.20;0.50;;;15.00;99.90;;;;;;6069310;23;20053;-77
2022/08/31 02:54:56;;;;;;;1.73;0.40;;;15.00;99.90;;;;;;6117016;23;20010;-76
2022/08/31 02:57:22;;;;;;;1.35;0.40;;;15.00;99.90;;;;;;6068689;23;20459;-76
2022/08/31 02:59:51;;;;;;;1.17;0.43;;;15.00;99.90;;;;;;6069193;23;20018;-77
2022/08/31 03:02:18;;;;;;;1.02;0.50;;;15.00;99.90;;;;;;6093658;23;20014;-77
2022/08/31 03:04:45;;;;;;;1.80;0.60;;;14.90;99.90;;;;;;6068549;23;20717;-77
2022/08/31 03:07:14;;;;;;;1.95;0.70;;;14.90;99.90;;;;;;6069291;23;20010;-77
2022/08/31 03:09:41;;;;;;;1.05;0.50;;;14.90;99.90;;;;;;6092967;23;20010;-80
2022/08/31 03:12:13;;;;;;;2.58;0.65;;;14.90;99.90;;;;;;6069234;23;20007;-77
2022/08/31 03:14:40;;;;;;;2.08;0.60;;;14.80;99.90;;;;;;6121510;23;20002;-78
2022/08/31 03:17:12;;;;;;;1.50;0.60;;;14.80;99.90;;;;;;6093357;23;20346;-76
2022/08/31 03:19:40;;;;;;;2.95;0.60;;;14.80;99.90;;;;;;6069451;23;20033;-76
2022/08/31 03:22:12;;;;;;;1.73;0.50;;;14.80;99.90;;;;;;6069552;23;20014;-76
2022/08/31 03:24:44;;;;;;;1.45;0.50;;;14.70;99.90;;;;;;6092385;23;20018;-76
2022/08/31 03:27:11;;;;;;;1.88;0.50;;;14.70;99.80;;;;;;6092378;23;20501;-77
2022/08/31 03:29:37;;;;;;;1.27;0.47;;;14.70;99.80;;;;;;6092483;23;20330;-78
2022/08/31 03:32:15;;;;;;;0.80;0.40;;;14.70;99.70;;;;;;6093221;23;20002;-78
2022/08/31 03:34:45;;;;;;;1.88;0.40;;;14.70;99.70;;;;;;6092882;23;20002;-78
2022/08/31 03:37:13;;;;;;;1.27;0.50;;;14.70;99.70;;;;;;6068979;23;20007;-77
2022/08/31 03:39:45;;;;;;;1.42;0.40;;;14.60;99.60;;;;;;6069240;23;20006;-79
2022/08/31 03:42:14;;;;;;;2.85;0.85;;;14.60;99.60;;;;;;6068928;23;20318;-77
2022/08/31 03:44:41;;;;;;;0.80;0.40;;;14.60;99.60;;;;;;6092395;23;20014;-78
2022/08/31 03:47:13;;;;;;;1.88;0.57;;;14.50;99.50;;;;;;6068798;23;20011;-77
2022/08/31 03:49:43;;;;;;;0.98;0.60;;;14.60;99.50;;;;;;6045165;23;20090;-77
2022/08/31 03:52:24;;;;;;;1.10;0.50;;;14.50;99.40;;;;;;6082266;23;20006;-78
2022/08/31 03:54:59;;;;;;;1.13;0.40;;;14.50;99.40;;;;;;6095704;23;20007;-77
2022/08/31 03:57:26;;;;;;;2.05;0.57;;;14.50;99.30;;;;;;6068450;23;20017;-77
2022/08/31 04:00:00;;;;;;;1.05;0.57;;;14.50;99.30;;;;;;6068520;23;20006;-77
2022/08/31 04:02:44;;;;;;;1.15;0.40;;;14.50;99.30;;;;;;6095548;23;20320;-77
2022/08/31 04:05:39;;;;;;;3.10;0.40;;;14.40;99.20;;;;;;6116626;23;20350;-76
2022/08/31 04:08:25;;;;;;;1.80;0.50;;;14.40;99.10;;;;;;6117221;23;20010;-78
2022/08/31 04:11:11;;;;;;;1.08;0.50;;;14.40;99.10;;;;;;6092646;23;20006;-78
2022/08/31 04:13:58;;;;;;;1.38;0.32;;;14.30;99.10;;;;;;6092228;23;20419;-79
2022/08/31 04:16:38;;;;;;;0.60;0.40;;;14.40;99.00;;;;;;6103511;23;20007;-79
2022/08/31 04:19:31;;;;;;;0.80;0.30;;;14.30;99.00;;;;;;6102482;23;20316;-78
2022/08/31 04:22:08;;;;;;;1.58;0.50;;;14.30;99.00;;;;;;6069384;23;20007;-79
2022/08/31 04:24:42;;;;;;;1.35;0.40;;;14.30;98.90;;;;;;6097234;23;20010;-80
2022/08/31 04:27:08;;;;;;;2.78;0.40;;;14.30;98.90;;;;;;6094454;23;20350;-80
2022/08/31 04:29:34;;;;;;;2.08;1.30;;;14.30;98.90;;;;;;6068853;23;20324;-78
2022/08/31 04:32:01;;;;;;;4.28;2.75;;;14.20;98.80;;;;;;6093995;23;20007;-80
2022/08/31 04:34:28;;;;;;;2.85;1.45;;;14.20;98.70;;;;;;6067579;23;20011;-79
2022/08/31 04:36:54;;;;;;;1.92;0.80;;;14.20;99.00;;;;;;6068145;23;20022;-79
2022/08/31 04:39:22;;;;;;;3.13;1.00;;;14.20;98.60;;;;;;6067729;23;20006;-79
2022/08/31 04:41:48;;;;;;;0.90;0.40;;;14.20;98.50;;;;;;6091121;23;20350;-78
2022/08/31 04:44:21;;;;;;;1.80;0.90;;;14.20;98.40;;;;;;6091750;23;20010;-77
2022/08/31 04:46:55;;;;;;;6.75;3.42;;;14.20;98.30;;;;;;6125363;23;20011;-78
2022/08/31 04:49:27;;;;;;;1.88;0.80;;;14.20;98.10;;;;;;6068264;23;20308;-79
2022/08/31 04:51:54;;;;;;;2.65;0.98;;;14.20;98.10;;;;;;6068626;23;20009;-79
2022/08/31 04:54:26;;;;;;;4.03;0.50;;;14.20;97.90;;;;;;6068239;23;20010;-78
2022/08/31 04:56:57;;;;;;;1.77;0.32;;;14.20;97.90;;;;;;6069488;23;20351;-80
2022/08/31 04:59:32;;;;;;;1.75;0.35;;;14.20;97.80;;;;;;6067471;23;20219;-79
2022/08/31 05:02:18;;;;;;;1.45;0.30;;;14.20;97.50;;;;;;6113978;23;20014;-79
2022/08/31 05:04:50;;;;;;;1.40;0.40;;;14.10;97.50;;;;;;6096469;23;20022;-79
2022/08/31 05:07:16;;;;;;;3.38;1.30;;;14.10;97.60;;;;;;6068153;23;20319;-79
2022/08/31 05:09:43;;;;;;;6.88;3.10;;;14.10;97.30;;;;;;6117169;23;20013;-78
2022/08/31 05:12:09;;;;;;;5.55;2.28;;;14.10;97.20;;;;;;6092861;23;20018;-81
2022/08/31 05:14:38;;;;;;;3.00;1.30;;;14.10;97.10;;;;;;6117012;23;20003;-79
2022/08/31 05:17:15;;;;;;;3.42;1.75;;;14.10;97.00;;;;;;6092806;23;20014;-80
2022/08/31 05:19:42;;;;;;;1.10;0.40;;;14.20;97.00;;;;;;6119855;23;20007;-79
2022/08/31 05:22:12;;;;;;;1.48;0.40;;;14.20;96.80;;;;;;6092520;23;20018;-80
2022/08/31 05:24:41;;;;;;;0.82;0.40;;;14.20;96.70;;;;;;6115645;23;20014;-79
2022/08/31 05:27:08;;;;;;;0.88;0.38;;;14.20;96.60;;;;;;6092133;23;20017;-80
2022/08/31 05:29:35;;;;;;;0.45;0.20;;;14.20;96.50;;;;;;6070457;23;20017;-81
2022/08/31 05:32:33;;;;;;;1.25;0.30;;;14.20;96.40;;;;;;6093500;23;20505;-80
2022/08/31 05:35:00;;;;;;;0.80;0.28;;;14.20;96.20;;;;;;6096367;23;20014;-80
2022/08/31 05:37:27;;;;;;;1.50;0.30;;;14.20;96.10;;;;;;6083565;23;20017;-80
2022/08/31 05:39:56;;;;;;;0.63;0.20;;;14.20;96.00;;;;;;6103081;23;20007;-81
2022/08/31 05:42:23;;;;;;;0.70;0.30;;;14.20;96.00;;;;;;6104070;23;20349;-80
2022/08/31 05:44:50;;;;;;;1.20;0.30;;;14.20;95.90;;;;;;6094731;23;20105;-79
2022/08/31 05:47:16;;;;;;;3.63;0.35;;;14.30;95.80;;;;;;6072817;23;20017;-80
2022/08/31 05:49:43;;;;;;;2.17;0.40;;;14.30;95.60;;;;;;6075492;23;20006;-80
2022/08/31 05:52:13;;;;;;;0.93;0.22;;;14.40;95.60;;;;;;6108075;23;20002;-80
2022/08/31 05:54:40;;;;;;;0.68;0.28;;;14.40;95.60;;;;;;6099751;23;20007;-81
2022/08/31 05:57:07;;;;;;;1.20;0.40;;;14.40;95.50;;;;;;6097353;23;20033;-81
2022/08/31 05:59:34;;;;;;;1.45;0.40;;;14.50;95.40;;;;;;6075435;23;20010;-79
2022/08/31 06:02:01;;;;;;;2.10;1.08;;;14.50;95.30;;;;;;6123122;23;20451;-79
2022/08/31 06:04:32;;;;;;;2.25;0.50;;;14.60;95.10;;;;;;6073472;23;20446;-79
2022/08/31 06:06:59;;;;;;;1.13;0.30;;;14.70;95.00;;;;;;6122844;23;20007;-78
2022/08/31 06:09:29;;;;;;;2.70;0.60;;;14.80;94.70;;;;;;6044982;23;20010;-79
2022/08/31 06:11:56;;;;;;;0.50;0.20;;;14.90;94.70;;;;;;6069616;23;20006;-80
2022/08/31 06:14:22;;;;;;;0.73;0.30;;;15.00;94.50;;;;;;6123765;23;20446;-80
2022/08/31 06:16:49;;;;;;;0.50;0.20;;;15.10;94.40;;;;;;6069465;23;20014;-80
2022/08/31 06:19:18;;;;;;;0.47;0.20;;;15.10;94.30;;;;;;6071466;23;20016;-81
2022/08/31 06:21:48;;;;;;;0.80;0.32;;;15.10;94.20;;;;;;6119545;23;20030;-80
2022/08/31 06:24:14;;;;;;;0.98;0.30;;;15.10;94.20;;;;;;6046061;23;20017;-80
2022/08/31 06:26:41;;;;;;;3.10;0.40;;;15.00;94.40;;;;;;6103653;23;20018;-81
2022/08/31 06:29:15;;;;;;;0.75;0.40;;;15.00;94.40;;;;;;6093415;23;20346;-81
2022/08/31 06:31:45;;;;;;;1.98;0.32;;;15.00;94.30;;;;;;6094045;23;20002;-80
2022/08/31 06:34:14;;;;;;;3.03;0.30;;;15.00;94.30;;;;;;6045777;23;20003;-80
2022/08/31 06:37:11;;;;;;;0.80;0.30;;;15.10;94.30;;;;;;6093705;23;20608;-80
2022/08/31 06:39:53;;;;;;;0.50;0.22;;;15.10;94.20;;;;;;6128729;23;20014;-79
2022/08/31 06:42:45;;;;;;;0.70;0.30;;;15.20;94.20;;;;;;6071764;23;20021;-80
2022/08/31 06:45:31;;;;;;;2.40;0.30;;;15.30;94.20;;;;;;6090768;23;20018;-81
2022/08/31 06:48:16;;;;;;;2.33;0.30;;;15.50;94.10;;;;;;6097851;23;20006;-80
2022/08/31 06:50:43;;;;;;;1.17;0.30;;;15.70;93.90;;;;;;6095506;23;20443;-81
2022/08/31 06:53:09;;;;;;;0.50;0.25;;;15.90;93.60;;;;;;6048386;23;20323;-79
2022/08/31 06:56:08;;;;;;;2.08;0.30;;;16.00;93.50;;;;;;6106440;23;20017;-80
2022/08/31 06:59:04;;;;;;;1.00;0.30;;;16.20;93.40;;;;;;6115712;23;19999;-80
2022/08/31 07:01:49;;;;;;;1.25;0.30;;;16.30;93.20;;;;;;6106388;23;20006;-78
2022/08/31 07:04:23;;;;;;;0.85;0.43;;;16.50;93.10;;;;;;6102351;23;20002;-80
2022/08/31 07:06:49;;;;;;;1.02;0.30;;;16.50;93.00;;;;;;6072006;23;20017;-81
2022/08/31 07:09:17;;;;;;;0.80;0.30;;;16.50;93.00;;;;;;6071060;23;20010;-79
2022/08/31 07:11:48;;;;;;;1.35;0.30;;;16.50;93.20;;;;;;6097128;23;20453;-81
2022/08/31 07:14:20;;;;;;;3.05;0.40;;;16.40;93.30;;;;;;6102420;23;20002;-81
2022/08/31 07:16:47;;;;;;;1.00;0.40;;;16.40;93.40;;;;;;6070910;23;20015;-80
2022/08/31 07:19:14;;;;;;;1.67;0.40;;;16.30;93.40;;;;;;6119818;23;20026;-80
2022/08/31 07:21:45;;;;;;;3.65;0.40;;;16.30;93.50;;;;;;6117676;23;20033;-80
2022/08/31 07:24:14;;;;;;;1.27;0.50;;;16.30;93.60;;;;;;6093228;23;20010;-80
2022/08/31 07:26:47;;;;;;;0.90;0.43;;;16.40;93.70;;;;;;6071616;23;20006;-82
2022/08/31 07:29:20;;;;;;;2.38;0.60;;;16.60;93.60;;;;;;6106469;23;20464;-80
2022/08/31 07:31:47;;;;;;;1.55;0.50;;;16.90;93.50;;;;;;6132410;23;20012;-80
2022/08/31 07:34:27;;;;;;;2.35;0.60;;;17.20;93.20;;;;;;6098472;23;20003;-80
2022/08/31 07:43:03;;;;;;;0.93;0.30;;;18.20;92.40;;;;;;6096570;23;20018;-82
2022/08/31 07:45:34;;;;;;;1.55;0.47;;;18.20;92.00;;;;;;6096824;23;20041;-83
2022/08/31 07:48:00;;;;;;;4.20;0.50;;;18.30;92.00;;;;;;6070783;23;20026;-80
2022/08/31 07:50:43;;;;;;;2.65;0.40;;;18.30;91.90;;;;;;6128761;23;20006;-80
2022/08/31 07:53:13;;;;;;;1.38;0.30;;;18.40;91.80;;;;;;6106952;23;20014;-81
2022/08/31 07:55:44;;;;;;;1.80;0.45;;;18.50;91.90;;;;;;6095158;23;20010;-79
2022/08/31 07:58:29;;;;;;;1.10;0.45;;;18.70;91.80;;;;;;6097670;23;20010;-81
2022/08/31 08:01:01;;;;;;;0.50;0.30;;;18.90;91.60;;;;;;6095055;23;20013;-79
2022/08/31 08:03:31;;;;;;;;;;;19.10;91.50;;;;;;6071359;23;20045;-81
2022/08/31 08:06:17;;;;;;;1.40;0.30;;;19.20;91.30;;;;;;6103191;23;19912;-79
2022/08/31 08:09:05;;;;;;;3.20;0.50;;;19.30;91.20;;;;;;6081875;23;19999;-79
2022/08/31 08:11:44;;;;;;;2.60;0.50;;;19.40;90.90;;;;;;6094009;23;20015;-80
2022/08/31 08:14:53;;;;;;;1.40;0.45;;;19.40;90.70;;;;;;6101795;23;20009;-80
2022/08/31 08:17:29;;;;;;;3.53;0.40;;;19.50;90.70;;;;;;6093652;23;20021;-80
2022/08/31 08:20:09;;;;;;;1.30;0.40;;;19.60;90.70;;;;;;6069673;23;20340;-79
2022/08/31 08:22:38;;;;;;;1.05;0.40;;;19.60;90.30;;;;;;6092290;23;20018;-80
2022/08/31 08:25:29;;;;;;;1.60;0.57;;;19.50;90.40;;;;;;6073914;23;20014;-80
2022/08/31 08:28:20;;;;;;;1.40;0.50;;;19.40;90.40;;;;;;6108406;23;20010;-80
2022/08/31 08:30:53;;;;;;;1.65;0.32;;;19.40;90.50;;;;;;6048331;23;20347;-80
2022/08/31 08:33:20;;;;;;;1.30;0.40;;;19.50;90.60;;;;;;6071228;23;20007;-79
2022/08/31 08:35:59;;;;;;;1.10;0.40;;;19.60;90.50;;;;;;6094069;23;20014;-81
2022/08/31 08:38:29;;;;;;;3.55;0.40;;;19.70;90.60;;;;;;6070797;23;20010;-81
2022/08/31 08:41:03;;;;;;;1.50;0.50;;;19.80;90.30;;;;;;6070963;23;20010;-80
2022/08/31 08:43:37;;;;;;;2.28;0.63;;;20.00;90.10;;;;;;6102651;23;20003;-81
2022/08/31 08:46:07;;;;;;;0.98;0.50;;;20.20;90.00;;;;;;6094110;23;20014;-80
2022/08/31 08:48:37;;;;;;;1.75;0.40;;;20.30;89.70;;;;;;6069595;23;20011;-79
2022/08/31 08:51:14;;;;;;;1.83;0.50;;;20.50;89.40;;;;;;6117933;23;20006;-80
2022/08/31 08:53:56;;;;;;;1.60;0.50;;;20.50;88.80;;;;;;6093841;23;20011;-79
2022/08/31 08:56:27;;;;;;;1.40;0.40;;;20.40;88.90;;;;;;6118461;23;20011;-80
2022/08/31 08:58:54;;;;;;;1.02;0.40;;;20.50;89.20;;;;;;6095491;23;20006;-81
2022/08/31 09:01:27;;;;;;;1.33;0.40;;;20.50;89.30;;;;;;6071872;23;20007;-83
2022/08/31 09:04:04;;;;;;;1.27;0.50;;;20.70;89.30;;;;;;6095921;23;20573;-81
2022/08/31 09:07:10;;;;;;;3.45;0.50;;;20.80;88.90;;;;;;6094715;23;20358;-83
2022/08/31 09:10:02;;;;;;;0.95;0.40;;;20.90;88.90;;;;;;6094904;23;20021;-83
2022/08/31 09:12:47;;;;;;;1.38;0.55;;;21.00;88.80;;;;;;6073451;23;20338;-80
2022/08/31 09:15:26;;;;;;;0.98;0.40;;;21.10;88.30;;;;;;6099155;23;20002;-81
2022/08/31 09:18:06;;;;;;;2.50;0.40;;;21.30;88.10;;;;;;6106939;23;20033;-80
2022/08/31 09:20:32;;;;;;;4.13;3.30;;;21.60;87.80;;;;;;6097070;23;20549;-82
2022/08/31 09:23:00;;;;;;;1.27;0.50;;;21.70;85.90;;;;;;6074292;23;20015;-83
2022/08/31 09:25:37;;;;;;;4.30;0.52;;;21.70;85.50;;;;;;6097262;23;20010;-82
2022/08/31 09:28:45;;;;;;;0.80;0.30;;;21.70;85.30;;;;;;6091437;23;20018;-82
2022/08/31 09:31:36;;;;;;;3.53;0.50;;;21.80;85.70;;;;;;6123110;23;20250;-84
2022/08/31 09:34:07;;;;;;;3.90;0.40;;;21.90;85.10;;;;;;6099445;23;20014;-81
2022/08/31 09:36:39;;;;;;;2.58;0.50;;;22.00;84.50;;;;;;6125416;23;20015;-81
2022/08/31 09:39:18;;;;;;;3.70;0.40;;;22.10;84.10;;;;;;6112357;23;20345;-83
2022/08/31 09:41:46;;;;;;;1.10;0.40;;;22.20;83.40;;;;;;6074154;23;20010;-82
2022/08/31 09:44:24;;;;;;;1.10;0.40;;;22.30;83.40;;;;;;6100891;23;20010;-81
2022/08/31 09:46:55;;;;;;;2.65;0.50;;;22.40;82.80;;;;;;6121654;23;20011;-82
2022/08/31 09:49:26;;;;;;;3.33;0.57;;;22.50;82.30;;;;;;6071437;23;20007;-82
2022/08/31 09:51:56;;;;;;;1.20;0.40;;;22.50;80.70;;;;;;6120220;23;20007;-80
2022/08/31 09:57:10;;;;;;;1.77;0.50;;;22.60;81.30;;;;;;6124471;23;20021;-84
2022/08/31 09:59:45;;;;;;;2.55;0.50;;;22.70;80.70;;;;;;6101690;23;20044;-84
2022/08/31 10:02:32;;;;;;;1.73;0.40;;;22.80;79.90;;;;;;6124863;23;20352;-81
2022/08/31 10:05:03;;;;;;;1.73;0.35;;;22.90;79.20;;;;;;6129048;23;20018;-81
2022/08/31 10:07:49;;;;;;;2.88;0.70;;;22.90;79.40;;;;;;6076658;23;20006;-81
2022/08/31 10:10:31;;;;;;;1.30;0.50;;;23.00;79.00;;;;;;6112558;23;20002;-82
2022/08/31 10:13:13;;;;;;;2.47;0.60;;;23.00;79.00;;;;;;6136166;23;20016;-81
2022/08/31 10:15:58;;;;;;;;;;;23.10;78.90;;;;;;6104365;23;20012;-80
2022/08/31 10:18:42;;;;;;;1.95;0.50;;;23.20;78.40;;;;;;6124427;23;19913;-81
2022/08/31 10:21:14;;;;;;;1.95;0.43;;;23.40;78.40;;;;;;6075896;23;20308;-81
2022/08/31 10:23:53;;;;;;;0.77;0.40;;;23.70;77.60;;;;;;6074601;23;20014;-81
2022/08/31 10:26:35;;;;;;;1.40;0.50;;;23.90;77.20;;;;;;6100234;23;20026;-80
2022/08/31 10:29:13;;;;;;;1.58;0.52;;;24.20;76.00;;;;;;6113419;23;20010;-80
2022/08/31 10:31:48;;;;;;;2.38;0.75;;;24.40;75.80;;;;;;6101758;23;20009;-80
2022/08/31 10:37:19;;;;;;;2.83;0.40;;;24.70;73.60;;;;;;6123215;23;20362;-81
2022/08/31 10:39:47;;;;;;;0.80;0.40;;;24.80;74.10;;;;;;6109822;23;20007;-81
2022/08/31 10:42:24;;;;;;;3.15;0.40;;;25.00;73.60;;;;;;6100716;23;20014;-80
2022/08/31 10:45:08;;;;;;;1.38;0.30;;;25.10;72.50;;;;;;6126466;23;20021;-80
2022/08/31 10:47:40;;;;;;;2.88;0.50;;;25.30;72.50;;;;;;6098956;23;20029;-81
2022/08/31 10:50:09;;;;;;;3.65;0.50;;;25.60;71.40;;;;;;6096109;23;20010;-81
2022/08/31 10:53:01;;;;;;;1.65;0.73;;;25.60;71.30;;;;;;6097870;23;20465;-81
2022/08/31 10:55:27;;;;;;;;;;;25.50;71.40;;;;;;6067746;23;20034;-82
2022/08/31 10:58:24;;;;;;;1.95;0.40;;;25.40;71.60;;;;;;6127937;23;19909;-83
2022/08/31 11:01:27;;;;;;;3.17;0.70;;;25.50;71.80;;;;;;6105304;23;20029;-82
2022/08/31 11:04:30;;;;;;;3.25;0.38;;;25.80;70.70;;;;;;6077347;23;20029;-82
2022/08/31 11:07:28;;;;;;;1.23;0.45;;;25.90;70.10;;;;;;6102119;23;20010;-81
2022/08/31 11:10:21;;;;;;;2.63;0.40;;;26.10;70.30;;;;;;6100987;23;20006;-82
2022/08/31 11:13:01;;;;;;;3.03;0.40;;;26.40;69.10;;;;;;6111615;23;20012;-82
2022/08/31 11:15:43;;;;;;;0.88;0.30;;;27.10;68.50;;;;;;6130687;23;20013;-82
2022/08/31 11:18:38;;;;;;;1.42;0.82;;;27.70;67.10;;;;;;6077728;23;20029;-82
2022/08/31 11:21:14;;;;;;;4.53;1.10;;;27.90;66.20;;;;;;6111399;23;20011;-81
2022/08/31 11:24:08;;;;;;;2.15;0.60;;;28.10;65.20;;;;;;6077255;23;20010;-81
2022/08/31 11:26:55;;;;;;;1.77;0.57;;;27.90;64.30;;;;;;6099865;23;20014;-82
2022/08/31 11:29:27;;;;;;;4.70;0.50;;;27.70;64.40;;;;;;6075096;23;20011;-81
2022/08/31 11:32:21;;;;;;;1.08;0.40;;;27.50;64.10;;;;;;6100026;23;20009;-81
2022/08/31 11:34:54;;;;;;;1.27;0.50;;;27.20;64.30;;;;;;6102857;23;20002;-82
2022/08/31 11:37:51;;;;;;;3.05;0.60;;;26.90;64.60;;;;;;6076322;23;20354;-82
2022/08/31 11:40:42;;;;;;;0.98;0.40;;;26.70;64.90;;;;;;6098906;23;20020;-81
2022/08/31 11:43:14;;;;;;;2.28;0.50;;;26.50;65.10;;;;;;6110265;23;20002;-81
2022/08/31 11:45:41;;;;;;;;;;;26.30;65.30;;;;;;6102482;23;20021;-82
2022/08/31 11:48:50;;;;;;;5.65;0.50;;;26.60;65.70;;;;;;6076180;23;19919;-81
2022/08/31 11:51:32;;;;;;;8.35;0.60;;;26.90;64.80;;;;;;6100796;23;20035;-81
2022/08/31 11:54:01;;;;;;;1.77;0.50;;;27.30;63.40;;;;;;6132404;23;20009;-82
2022/08/31 11:56:39;;;;;;;2.83;0.50;;;27.90;62.70;;;;;;6100036;23;20006;-82
2022/08/31 11:59:34;;;;;;;0.73;0.40;;;28.60;61.80;;;;;;6111494;23;20010;-82
2022/08/31 12:02:20;;;;;;;1.95;0.32;;;29.10;61.00;;;;;;6109687;23;20022;-83
2022/08/31 12:04:56;;;;;;;2.10;0.40;;;29.70;60.20;;;;;;6075261;23;20006;-82
2022/08/31 12:07:34;;;;;;;2.28;0.43;;;30.60;59.30;;;;;;6134414;23;20017;-82
2022/08/31 12:10:42;;;;;;;3.17;0.60;;;30.60;56.50;;;;;;6100199;23;20014;-82
2022/08/31 12:13:18;;;;;;;1.35;0.40;;;29.80;57.30;;;;;;6076102;23;20010;-82
2022/08/31 12:16:19;;;;;;;2.60;0.55;;;28.90;59.00;;;;;;6132479;23;20007;-82
2022/08/31 12:19:12;;;;;;;1.95;0.47;;;28.50;59.50;;;;;;6123837;23;20071;-83
2022/08/31 12:25:21;;;;;;;1.30;0.30;;;30.30;58.30;;;;;;6099046;23;20014;-82
2022/08/31 12:28:09;;;;;;;3.17;0.53;;;30.40;56.50;;;;;;6100163;23;20014;-81
2022/08/31 12:30:48;;;;;;;0.40;0.20;;;30.60;55.40;;;;;;6099690;23;20254;-79
2022/08/31 12:33:21;;;;;;;1.85;0.43;;;31.30;55.20;;;;;;6076730;23;20010;-83
2022/08/31 12:36:17;;;;;;;0.60;0.30;;;32.30;52.90;;;;;;6075510;23;20024;-81
2022/08/31 12:38:44;;;;;;;1.23;0.45;;;32.80;51.90;;;;;;6101926;23;20022;-81
2022/08/31 12:41:15;;;;;;;2.50;0.65;;;32.40;51.60;;;;;;6100119;23;20014;-80
2022/08/31 12:43:45;;;;;;;1.55;0.30;;;31.70;52.60;;;;;;6107895;23;20006;-81
2022/08/31 12:46:41;;;;;;;1.75;0.50;;;31.60;53.00;;;;;;6076784;23;20017;-80
2022/08/31 12:49:25;;;;;;;2.08;0.40;;;32.30;52.00;;;;;;6069132;23;20011;-82
2022/08/31 12:52:04;;;;;;;1.35;0.60;;;32.80;51.80;;;;;;6123635;23;20042;-81
2022/08/31 12:54:48;;;;;;;0.70;0.30;;;32.80;50.80;;;;;;6108047;23;20012;-82
2022/08/31 12:57:39;;;;;;;3.30;0.40;;;33.30;49.90;;;;;;6124832;23;20006;-80
2022/08/31 13:00:11;;;;;;;1.53;1.10;;;33.60;49.30;;;;;;6120204;23;20010;-80
2022/08/31 13:02:42;;;;;;;1.58;0.50;;;34.10;48.80;;;;;;6120906;23;20018;-81
2022/08/31 13:05:37;;;;;;;1.00;0.40;;;34.50;48.20;;;;;;6098118;23;20006;-80
2022/08/31 13:08:25;;;;;;;3.35;0.50;;;34.60;46.80;;;;;;6079261;23;20015;-80
2022/08/31 13:10:52;;;;;;;0.55;0.30;;;34.50;46.60;;;;;;6091308;23;20006;-82
2022/08/31 13:13:25;;;;;;;1.73;0.60;;;34.60;47.00;;;;;;6116333;23;20013;-85
2022/08/31 13:15:59;;;;;;;2.20;0.43;;;34.70;46.30;;;;;;6130856;23;20016;-82
2022/08/31 13:18:29;;;;;;;2.75;0.40;;;33.80;46.70;;;;;;6129651;23;20011;-82
2022/08/31 13:21:02;;;;;;;1.52;0.43;;;33.70;46.90;;;;;;6104988;23;20398;-82
2022/08/31 13:23:37;;;;;;;1.77;0.30;;;34.10;46.30;;;;;;6128704;23;20014;-82
2022/08/31 13:26:23;;;;;;;0.70;0.30;;;34.40;46.10;;;;;;6075967;23;20017;-82
2022/08/31 13:29:00;;;;;;;0.63;0.30;;;34.70;45.30;;;;;;6136371;23;20017;-82
2022/08/31 13:31:29;;;;;;;1.80;0.40;;;34.90;45.00;;;;;;6113965;23;20013;-82
2022/08/31 13:34:06;;;;;;;0.82;0.30;;;35.00;45.10;;;;;;6103739;23;20002;-82
2022/08/31 13:36:37;;;;;;;1.45;0.40;;;34.80;45.30;;;;;;6108175;23;20016;-82
2022/08/31 13:39:26;;;;;;;1.35;0.57;;;35.00;45.20;;;;;;6079801;23;20029;-83
2022/08/31 13:42:08;;;;;;;1.27;0.30;;;34.90;44.30;;;;;;6128535;23;20021;-81
2022/08/31 13:44:45;;;;;;;1.25;0.35;;;33.40;46.10;;;;;;6101832;23;20024;-81
2022/08/31 13:47:20;;;;;;;1.48;0.40;;;33.00;47.30;;;;;;6124618;23;20010;-83